Pettus, Arkansas
Current Conditions -  °F | °C
As of 7:58 PM on Wednesday 26 Nov 2014 (Local Time) from KLRF Reporting Station
Clear Clear  
Wind Chill: 37°   Ceiling: Unl
Heat Index: 37°   Visibility: 10mi
Dew Point: 29°   Wind: 2mph
Humidity: 73%   Direction: 240°WSW
Pressure: 30.18"   Gusts: NA
Location:  34.7557°N, 91.9476°W
Report Text: KLRF 270158Z AUTO 24002KT 10SM CLR 03/M02 A3018 RMK AO2 SLP225 T00251019 $
Loading
Personal Weather Stations






























Interactive Weather Map New forecast layout! Learn more

10-Day Weather Forecast

Advertisements
Track Severe Weather on mobile